Time;durP1;ratioP1;P1;durP2;ratioP2;P2;SDS_P1;SDS_P2;PMS_P1;PMS_P2;Temp;Humidity;BMP_temperature;BMP_pressure;BME280_temperature;BME280_humidity;BME280_pressure;Samples;Min_cycle;Max_cycle;Signal;HPM_P1;HPM_P2
2023/02/22 00:00:48;;;;;;;15.48;4.88;;;;;;;5.19;68.66;98489.91;4971319;28;20526;-86
2023/02/22 00:03:23;;;;;;;12.63;4.65;;;;;;;5.19;68.56;98498.06;4972173;28;20014;-85
2023/02/22 00:05:52;;;;;;;12.95;5.25;;;;;;;5.21;68.58;98484.19;4971165;28;20178;-86
2023/02/22 00:08:19;;;;;;;15.95;6.60;;;;;;;5.21;68.70;98484.19;4970559;28;20030;-85
2023/02/22 00:10:44;;;;;;;15.45;5.47;;;;;;;5.23;68.57;98495.63;4971927;28;20054;-85
2023/02/22 00:13:12;;;;;;;12.07;5.35;;;;;;;5.21;68.53;98490.47;4972019;28;20023;-85
2023/02/22 00:15:40;;;;;;;15.30;5.18;;;;;;;5.24;68.74;98493.75;4972629;28;20034;-85
2023/02/22 00:18:09;;;;;;;15.80;5.22;;;;;;;5.24;68.66;98497.28;4968441;28;20113;-86
2023/02/22 00:20:37;;;;;;;14.27;5.10;;;;;;;5.26;68.51;98488.88;4971813;28;20143;-86
2023/02/22 00:23:05;;;;;;;15.73;4.80;;;;;;;5.26;68.89;98486.16;4971541;28;20023;-85
2023/02/22 00:25:32;;;;;;;14.07;5.20;;;;;;;5.27;69.22;98491.31;4970893;28;20038;-85
2023/02/22 00:27:58;;;;;;;17.08;6.13;;;;;;;5.25;69.13;98490.75;4972133;28;20022;-86
2023/02/22 00:30:26;;;;;;;18.73;5.65;;;;;;;5.24;68.63;98496.47;4971837;28;20030;-86
2023/02/22 00:32:52;;;;;;;17.40;5.50;;;;;;;5.20;68.94;98488.00;4971713;28;20034;-86
2023/02/22 00:35:20;;;;;;;15.65;5.55;;;;;;;5.18;68.97;98485.56;4971935;28;20100;-86
2023/02/22 00:37:50;;;;;;;13.30;4.90;;;;;;;5.14;68.72;98489.03;4968905;28;20027;-86
2023/02/22 00:40:17;;;;;;;;;;;;;;;5.14;69.00;98494.47;4970977;28;20023;-86
2023/02/22 00:42:43;;;;;;;15.52;5.55;;;;;;;5.12;69.01;98499.34;4970601;28;19925;-81
2023/02/22 00:45:08;;;;;;;17.58;5.32;;;;;;;5.08;68.85;98501.78;4971627;28;20106;-86
2023/02/22 00:47:34;;;;;;;13.60;5.43;;;;;;;5.04;68.66;98496.03;4971482;28;20085;-85
2023/02/22 00:49:59;;;;;;;16.10;5.50;;;;;;;5.03;69.08;98491.69;4971156;28;20054;-84
2023/02/22 00:52:26;;;;;;;13.10;5.35;;;;;;;5.01;69.16;98495.72;4971103;28;20142;-85
2023/02/22 00:54:52;;;;;;;17.42;6.65;;;;;;;5.00;68.65;98496.81;4971844;28;20050;-85
2023/02/22 00:57:18;;;;;;;15.35;6.10;;;;;;;4.96;68.91;98499.22;4971429;28;20027;-85
2023/02/22 00:59:43;;;;;;;16.92;6.30;;;;;;;4.94;68.95;98495.94;4971087;28;20081;-84
2023/02/22 01:02:09;;;;;;;17.73;7.13;;;;;;;4.90;68.37;98495.63;4971062;28;20027;-84
2023/02/22 01:04:34;;;;;;;16.95;6.90;;;;;;;4.85;68.38;98492.88;4971137;28;20077;-84
2023/02/22 01:06:59;;;;;;;18.52;7.10;;;;;;;4.82;68.54;98496.13;4986168;28;20034;-84
2023/02/22 01:09:25;;;;;;;15.88;6.88;;;;;;;4.80;68.93;98500.16;4970261;28;20026;-84
2023/02/22 01:11:54;;;;;;;19.15;6.60;;;;;;;4.76;68.38;98497.16;4971458;28;20391;-84
2023/02/22 01:14:22;;;;;;;17.88;6.95;;;;;;;4.73;68.96;98498.47;4971517;28;20404;-84
2023/02/22 01:16:49;;;;;;;19.58;7.78;;;;;;;4.68;68.58;98493.00;4971664;28;20030;-84
2023/02/22 01:19:15;;;;;;;18.75;7.20;;;;;;;4.65;69.23;98493.50;4971358;28;20363;-84
2023/02/22 01:21:40;;;;;;;19.45;7.38;;;;;;;4.61;68.51;98492.38;4969906;28;20542;-85
2023/02/22 01:24:06;;;;;;;19.40;7.18;;;;;;;4.59;68.85;98491.81;4971717;28;20027;-84
2023/02/22 01:26:32;;;;;;;15.93;6.53;;;;;;;4.56;68.50;98495.03;4971599;28;20371;-85
2023/02/22 01:28:57;;;;;;;16.83;6.93;;;;;;;4.53;68.61;98496.34;4971758;28;20027;-84
2023/02/22 01:31:23;;;;;;;17.80;7.40;;;;;;;4.51;68.97;98492.28;4969903;28;20031;-85
2023/02/22 01:33:49;;;;;;;19.40;7.00;;;;;;;4.48;69.26;98488.19;4971040;28;20030;-84
2023/02/22 01:36:17;;;;;;;15.25;6.65;;;;;;;4.47;69.29;98494.69;4971280;28;20022;-84
2023/02/22 01:38:44;;;;;;;19.23;7.40;;;;;;;4.44;69.25;98493.28;4969699;28;20034;-84
2023/02/22 01:41:11;;;;;;;16.67;7.25;;;;;;;4.41;69.05;98496.50;4971227;28;20154;-83
2023/02/22 01:43:38;;;;;;;20.80;8.00;;;;;;;4.40;68.80;98507.66;4971005;28;20034;-84
2023/02/22 01:46:20;;;;;;;16.88;7.03;;;;;;;4.36;69.19;98496.44;4971478;28;20381;-85
2023/02/22 01:48:54;;;;;;;17.13;7.32;;;;;;;4.37;68.95;98494.56;4970668;28;20820;-84
2023/02/22 01:51:27;;;;;;;19.98;7.85;;;;;;;4.37;69.09;98502.72;4970833;28;20427;-85
2023/02/22 01:53:57;;;;;;;16.70;7.13;;;;;;;4.36;68.91;98487.50;4969818;28;20042;-85
2023/02/22 01:56:26;;;;;;;19.75;6.47;;;;;;;4.34;69.20;98490.44;4971014;28;20381;-83
2023/02/22 01:58:58;;;;;;;18.73;6.25;;;;;;;4.33;69.28;98486.09;4970386;28;20534;-84
2023/02/22 02:01:25;;;;;;;18.33;6.07;;;;;;;4.32;69.60;98482.56;4970605;28;20039;-85
2023/02/22 02:03:56;;;;;;;16.77;5.95;;;;;;;4.33;69.72;98486.09;4971109;28;20526;-85
2023/02/22 02:06:23;;;;;;;20.25;6.38;;;;;;;4.32;69.45;98481.75;4970940;28;20022;-83
2023/02/22 02:08:58;;;;;;;15.95;5.55;;;;;;;4.32;69.18;98485.28;4970821;28;20383;-84
2023/02/22 02:11:25;;;;;;;14.18;6.75;;;;;;;4.32;69.42;98492.59;4969847;28;20031;-84
2023/02/22 02:13:54;;;;;;;19.27;6.75;;;;;;;4.31;69.67;98485.53;4969703;28;20399;-84
2023/02/22 02:16:21;;;;;;;17.65;6.35;;;;;;;4.28;69.45;98484.16;4970949;28;20014;-85
2023/02/22 02:18:46;;;;;;;14.50;5.93;;;;;;;4.27;69.90;98485.22;4971323;28;20129;-85
2023/02/22 02:21:37;;;;;;;13.07;6.30;;;;;;;4.27;69.38;98487.13;4969667;28;20109;-84
2023/02/22 02:24:21;;;;;;;16.33;6.32;;;;;;;4.27;69.91;98485.22;4970310;28;20027;-82
2023/02/22 02:27:23;;;;;;;16.63;6.68;;;;;;;4.24;70.20;98488.44;4970870;28;20138;-83
2023/02/22 02:30:06;;;;;;;15.00;6.80;;;;;;;4.23;69.37;98494.16;4982574;28;20057;-83
2023/02/22 02:32:35;;;;;;;14.57;7.47;;;;;;;4.20;69.40;98491.94;4969691;28;20034;-82
2023/02/22 02:35:31;;;;;;;19.27;7.30;;;;;;;4.15;70.27;98495.41;4971015;28;20472;-83
2023/02/22 02:38:14;;;;;;;14.73;7.13;;;;;;;4.13;70.25;98494.81;4970401;28;20112;-82
2023/02/22 02:40:54;;;;;;;14.68;6.57;;;;;;;4.09;70.39;98486.38;4970907;28;20038;-82
2023/02/22 02:43:35;;;;;;;18.92;6.95;;;;;;;4.07;70.33;98496.66;4969664;28;20114;-82
2023/02/22 02:46:04;;;;;;;17.40;6.78;;;;;;;4.05;70.71;98498.81;4982520;28;20623;-82
2023/02/22 02:48:33;;;;;;;15.50;6.97;;;;;;;4.05;70.86;98493.38;4969320;28;20034;-82
2023/02/22 02:51:00;;;;;;;14.90;7.57;;;;;;;4.06;71.31;98495.03;4970406;28;20034;-83
2023/02/22 02:53:32;;;;;;;17.60;7.22;;;;;;;4.07;71.28;98493.94;4970080;28;20038;-83
2023/02/22 02:55:58;;;;;;;12.68;6.85;;;;;;;4.08;70.91;98501.03;4970299;28;20039;-82
2023/02/22 02:58:24;;;;;;;14.98;6.80;;;;;;;4.12;71.23;98501.31;4970534;28;20034;-82
2023/02/22 03:00:54;;;;;;;17.45;7.00;;;;;;;4.12;71.42;98499.44;4970871;28;20023;-83
2023/02/22 03:03:22;;;;;;;;;;;;;;;4.16;72.03;98491.59;4970521;28;20015;-83
2023/02/22 03:06:13;;;;;;;11.98;6.25;;;;;;;4.20;72.05;98497.38;4973345;28;19914;-83
2023/02/22 03:09:07;;;;;;;15.52;7.32;;;;;;;4.21;72.19;98501.72;4974432;28;20054;-82
2023/02/22 03:12:12;;;;;;;14.35;7.13;;;;;;;4.23;71.84;98496.88;4973552;28;20046;-82
2023/02/22 03:14:47;;;;;;;16.40;7.07;;;;;;;4.29;72.05;98502.09;4991576;28;20042;-83
2023/02/22 03:17:29;;;;;;;16.00;7.18;;;;;;;4.29;72.40;98502.09;4974020;28;20110;-83
2023/02/22 03:20:08;;;;;;;15.70;7.88;;;;;;;4.29;72.45;98498.53;4974223;28;20113;-83
2023/02/22 03:22:47;;;;;;;15.73;7.43;;;;;;;4.28;72.26;98500.44;4972963;28;20027;-83
2023/02/22 03:25:30;;;;;;;14.85;7.47;;;;;;;4.29;72.38;98507.53;4973969;28;20029;-82
2023/02/22 03:28:01;;;;;;;16.98;7.85;;;;;;;4.31;72.22;98497.22;4974298;28;20058;-83
2023/02/22 03:30:27;;;;;;;17.30;7.47;;;;;;;4.32;72.29;98506.19;4975670;28;20105;-84
2023/02/22 03:33:00;;;;;;;14.73;7.65;;;;;;;4.32;72.48;98511.59;4974052;28;20098;-83
2023/02/22 03:35:34;;;;;;;22.05;8.65;;;;;;;4.35;72.66;98502.16;4974221;28;20055;-83
2023/02/22 03:38:03;;;;;;;19.67;9.13;;;;;;;4.35;73.41;98513.00;4974237;28;20101;-81
2023/02/22 03:40:42;;;;;;;24.37;10.43;;;;;;;4.35;73.75;98515.72;4974187;28;20488;-82
2023/02/22 03:43:14;;;;;;;20.67;10.23;;;;;;;4.34;72.99;98500.50;4972815;28;20034;-82
2023/02/22 03:45:43;;;;;;;23.05;11.50;;;;;;;4.33;72.96;98510.53;4974391;28;20066;-84
2023/02/22 03:48:21;;;;;;;33.13;14.15;;;;;;;4.32;73.00;98509.72;4974678;28;20062;-84
2023/02/22 03:50:48;;;;;;;38.03;14.45;;;;;;;4.36;73.40;98501.88;4974613;28;20159;-83
2023/02/22 03:53:17;;;;;;;30.58;10.98;;;;;;;4.36;73.59;98512.75;4974248;28;20038;-83
2023/02/22 03:55:43;;;;;;;19.75;9.32;;;;;;;4.36;73.41;98504.59;4973933;28;20138;-82
2023/02/22 03:58:11;;;;;;;19.02;9.45;;;;;;;4.39;73.44;98506.00;4974049;28;20165;-82
2023/02/22 04:00:36;;;;;;;17.08;9.35;;;;;;;4.40;73.34;98518.50;4974558;28;20490;-83
2023/02/22 04:03:02;;;;;;;14.43;8.50;;;;;;;4.42;73.76;98510.94;4973772;28;20492;-83
2023/02/22 04:05:28;;;;;;;18.00;8.32;;;;;;;4.44;73.00;98516.94;4989668;28;20042;-83
2023/02/22 04:07:56;;;;;;;16.02;8.52;;;;;;;4.42;73.31;98511.72;4974684;28;20503;-81
2023/02/22 04:10:23;;;;;;;24.77;12.13;;;;;;;4.40;72.74;98511.16;4974269;28;20109;-83
2023/02/22 04:12:49;;;;;;;24.83;11.88;;;;;;;4.38;73.53;98512.50;4973534;28;20042;-82
2023/02/22 04:15:20;;;;;;;19.38;10.35;;;;;;;4.37;72.55;98516.28;4973584;28;20502;-82
2023/02/22 04:17:46;;;;;;;22.25;10.80;;;;;;;4.30;72.67;98524.63;4973958;28;20035;-83
2023/02/22 04:20:12;;;;;;;22.20;10.10;;;;;;;4.27;73.06;98514.28;4973724;28;20034;-83
2023/02/22 04:22:38;;;;;;;16.15;9.77;;;;;;;4.23;72.77;98515.88;4973545;28;20026;-82
2023/02/22 04:25:04;;;;;;;25.95;15.38;;;;;;;4.19;72.61;98518.25;4972812;28;20025;-83
2023/02/22 04:27:29;;;;;;;30.60;19.52;;;;;;;4.17;72.82;98513.09;4973919;28;20031;-82
2023/02/22 04:29:55;;;;;;;30.00;17.80;;;;;;;4.16;72.90;98522.31;4973201;28;20034;-82
2023/02/22 04:32:20;;;;;;;17.23;10.27;;;;;;;4.14;72.81;98520.91;4973233;28;20490;-82
2023/02/22 04:34:45;;;;;;;21.25;11.38;;;;;;;4.09;73.05;98518.13;4972335;28;20498;-82
2023/02/22 04:37:11;;;;;;;24.88;13.18;;;;;;;4.05;72.87;98517.81;4973849;28;20034;-81
2023/02/22 04:39:37;;;;;;;22.02;14.20;;;;;;;4.03;73.18;98514.53;4972719;28;20039;-82
2023/02/22 04:42:02;;;;;;;22.35;15.10;;;;;;;3.97;72.87;98516.38;4973067;28;20035;-82
2023/02/22 04:44:29;;;;;;;27.45;15.55;;;;;;;3.93;72.77;98515.22;4973604;28;20034;-83
2023/02/22 04:46:55;;;;;;;23.58;14.60;;;;;;;3.91;72.59;98519.25;4973229;28;20035;-82
2023/02/22 04:49:20;;;;;;;28.20;15.15;;;;;;;3.85;73.34;98516.50;4973174;28;20049;-82
2023/02/22 04:51:46;;;;;;;31.90;13.57;;;;;;;3.80;73.44;98519.13;4972959;28;20035;-82
2023/02/22 04:54:12;;;;;;;36.20;15.90;;;;;;;3.77;73.63;98514.19;4973300;28;20411;-82
2023/02/22 04:56:38;;;;;;;42.90;16.27;;;;;;;3.75;73.54;98515.50;4973792;28;20129;-81
2023/02/22 04:59:03;;;;;;;50.17;18.10;;;;;;;3.70;72.92;98514.34;4973353;28;20526;-81
2023/02/22 05:01:33;;;;;;;66.70;22.00;;;;;;;3.68;73.29;98512.97;4972870;28;20035;-81
2023/02/22 05:04:01;;;;;;;60.38;21.25;;;;;;;3.64;73.40;98507.25;4972730;28;20065;-81
2023/02/22 05:06:27;;;;;;;58.90;21.38;;;;;;;3.57;73.11;98520.97;4972890;28;20026;-81
2023/02/22 05:08:52;;;;;;;56.30;20.38;;;;;;;3.50;73.21;98504.03;4973476;28;20395;-81
2023/02/22 05:11:18;;;;;;;44.67;18.33;;;;;;;3.48;72.90;98517.03;4972602;28;20506;-80
2023/02/22 05:13:43;;;;;;;43.97;17.77;;;;;;;3.43;73.16;98508.84;4971750;28;20031;-81
2023/02/22 05:16:08;;;;;;;39.60;18.95;;;;;;;3.40;73.03;98514.75;4973050;28;21422;-82
2023/02/22 05:18:34;;;;;;;31.38;16.13;;;;;;;3.34;72.90;98513.03;4973419;28;20041;-83
2023/02/22 05:20:59;;;;;;;31.52;17.45;;;;;;;3.30;73.04;98509.97;4972448;28;20116;-83
2023/02/22 05:23:24;;;;;;;29.55;15.77;;;;;;;3.26;73.28;98516.97;4972208;28;20027;-83
2023/02/22 05:25:50;;;;;;;24.85;13.57;;;;;;;3.24;73.15;98514.50;4972864;28;20026;-83
2023/02/22 05:28:15;;;;;;;24.40;13.15;;;;;;;3.21;72.90;98519.59;4971860;28;20081;-83
2023/02/22 05:30:41;;;;;;;23.20;13.32;;;;;;;3.17;73.20;98519.25;4971892;28;20130;-83
2023/02/22 05:33:08;;;;;;;26.65;16.10;;;;;;;3.15;72.89;98518.69;4971957;28;20102;-82
2023/02/22 05:35:35;;;;;;;28.75;15.35;;;;;;;3.12;72.76;98524.59;4971704;28;20031;-83
2023/02/22 05:38:02;;;;;;;30.73;14.15;;;;;;;3.10;73.04;98522.16;4972337;28;20019;-82
2023/02/22 05:40:28;;;;;;;31.33;14.75;;;;;;;3.08;73.25;98527.00;4970370;28;20046;-81
2023/02/22 05:42:55;;;;;;;32.08;16.42;;;;;;;3.06;73.40;98528.28;4972304;28;20030;-82
2023/02/22 05:45:23;;;;;;;33.55;16.60;;;;;;;3.02;73.29;98522.53;4972484;28;20065;-82
2023/02/22 05:47:49;;;;;;;36.00;15.85;;;;;;;3.00;73.80;98527.38;4972313;28;20033;-82
2023/02/22 05:50:15;;;;;;;36.63;16.58;;;;;;;3.00;73.92;98532.00;4972058;28;20019;-82
2023/02/22 05:52:41;;;;;;;36.90;16.58;;;;;;;3.00;73.43;98532.81;4971743;28;20184;-82
2023/02/22 05:55:08;;;;;;;31.55;15.40;;;;;;;2.98;72.94;98533.06;4971133;28;20490;-82
2023/02/22 05:57:33;;;;;;;26.50;13.50;;;;;;;2.99;73.96;98539.28;4971893;28;20027;-81
2023/02/22 05:59:59;;;;;;;26.65;12.70;;;;;;;3.00;73.66;98534.72;4972010;28;20064;-82
2023/02/22 06:02:25;;;;;;;25.08;11.55;;;;;;;3.00;73.80;98543.63;4971578;28;20121;-82
2023/02/22 06:04:53;;;;;;;22.48;11.45;;;;;;;3.01;73.74;98544.47;4972262;28;20034;-82
2023/02/22 06:07:18;;;;;;;31.95;13.95;;;;;;;3.02;73.98;98548.84;4971213;28;20391;-83
2023/02/22 06:09:43;;;;;;;43.20;17.10;;;;;;;3.03;73.63;98547.75;4971382;28;20038;-82
2023/02/22 06:12:09;;;;;;;47.38;19.50;;;;;;;3.03;73.38;98553.19;4970305;28;20022;-82
2023/02/22 06:14:35;;;;;;;50.05;17.88;;;;;;;3.04;73.73;98554.81;4971998;28;20074;-83
2023/02/22 06:17:01;;;;;;;31.73;14.48;;;;;;;3.06;73.68;98558.09;4970814;28;20027;-82
2023/02/22 06:19:27;;;;;;;31.98;14.27;;;;;;;3.07;73.56;98560.56;4971822;28;20085;-81
2023/02/22 06:21:55;;;;;;;28.38;12.82;;;;;;;3.04;73.41;98561.06;4970268;28;20660;-82
2023/02/22 06:24:21;;;;;;;29.88;13.48;;;;;;;3.08;74.01;98564.09;4971848;28;20038;-82
2023/02/22 06:26:54;;;;;;;28.42;13.07;;;;;;;3.09;73.49;98565.72;4970322;28;20046;-81
2023/02/22 06:29:20;;;;;;;26.50;12.55;;;;;;;3.09;74.13;98572.00;4970941;28;20066;-82
2023/02/22 06:31:45;;;;;;;24.85;12.93;;;;;;;3.12;73.31;98576.09;4971125;28;20062;-81
2023/02/22 06:34:10;;;;;;;27.90;12.10;;;;;;;3.17;73.59;98584.31;4972072;28;20026;-82
2023/02/22 06:36:36;;;;;;;26.13;11.82;;;;;;;3.20;73.42;98585.72;4970583;28;20043;-83
2023/02/22 06:39:02;;;;;;;23.05;12.45;;;;;;;3.23;73.75;98583.34;4971991;28;20030;-82
2023/02/22 06:41:28;;;;;;;28.20;13.18;;;;;;;3.32;73.83;98593.78;4971928;28;20535;-83
2023/02/22 06:43:53;;;;;;;25.45;12.50;;;;;;;3.37;73.48;98588.44;4971066;28;20491;-83
2023/02/22 06:46:20;;;;;;;22.45;10.90;;;;;;;3.43;74.28;98595.59;4969483;28;20023;-82
2023/02/22 06:48:46;;;;;;;23.58;11.77;;;;;;;3.49;74.50;98591.06;4970380;28;20050;-82
2023/02/22 06:51:11;;;;;;;19.90;10.70;;;;;;;3.58;74.41;98592.31;4970694;28;20400;-83
2023/02/22 06:53:37;;;;;;;16.48;10.05;;;;;;;3.67;74.74;98598.94;4969887;28;20041;-82
2023/02/22 06:56:02;;;;;;;20.38;10.40;;;;;;;3.75;74.11;98596.88;4969725;28;20034;-81
2023/02/22 06:58:28;;;;;;;19.67;10.55;;;;;;;3.81;74.52;98604.88;4969294;28;20376;-81
2023/02/22 07:00:54;;;;;;;22.58;12.23;;;;;;;3.88;74.75;98602.78;4966771;28;20133;-85
2023/02/22 07:03:19;;;;;;;22.40;12.18;;;;;;;3.97;74.02;98605.09;4969144;28;20039;-86
2023/02/22 07:05:45;;;;;;;18.75;11.15;;;;;;;4.03;74.03;98601.38;4967118;28;20462;-84
2023/02/22 07:08:11;;;;;;;17.88;10.02;;;;;;;4.11;74.17;98605.53;4969906;28;20101;-85
2023/02/22 07:10:38;;;;;;;22.63;11.65;;;;;;;4.17;74.42;98597.25;4969423;28;20427;-83
2023/02/22 07:13:05;;;;;;;20.15;9.23;;;;;;;4.25;74.96;98608.75;4967420;28;20550;-85
2023/02/22 07:15:32;;;;;;;21.55;11.02;;;;;;;4.35;74.85;98610.75;4968834;28;20027;-85
2023/02/22 07:17:58;;;;;;;17.63;10.82;;;;;;;4.43;74.57;98611.13;4968098;28;20491;-85
2023/02/22 07:20:25;;;;;;;19.70;10.05;;;;;;;4.54;74.49;98616.72;4967592;28;20046;-84
2023/02/22 07:22:50;;;;;;;21.67;10.98;;;;;;;4.62;74.87;98611.66;4966457;28;20046;-81
2023/02/22 07:25:17;;;;;;;23.88;10.02;;;;;;;4.69;74.42;98605.19;4969099;28;20045;-81
2023/02/22 07:27:42;;;;;;;22.40;10.05;;;;;;;4.78;74.58;98611.84;4969025;28;20065;-82
2023/02/22 07:30:23;;;;;;;20.60;10.05;;;;;;;4.84;74.66;98605.38;4968934;28;20429;-84
2023/02/22 07:32:50;;;;;;;35.70;14.85;;;;;;;4.95;74.93;98603.59;4968708;28;20539;-83
2023/02/22 07:35:22;;;;;;;34.03;15.55;;;;;;;5.02;75.16;98603.38;4967698;28;20027;-81
2023/02/22 07:37:47;;;;;;;26.52;13.50;;;;;;;5.07;74.75;98598.00;4968565;28;20027;-81
2023/02/22 07:40:14;;;;;;;29.25;12.85;;;;;;;5.13;74.65;98601.56;4968411;28;20454;-80
2023/02/22 07:42:53;;;;;;;27.10;11.88;;;;;;;5.19;74.43;98611.44;4968249;28;20067;-86
2023/02/22 07:45:18;;;;;;;34.20;13.07;;;;;;;5.29;74.69;98608.00;4963227;28;20655;-85
2023/02/22 07:47:46;;;;;;;37.05;14.45;;;;;;;5.38;74.89;98606.44;4967949;28;20035;-87
2023/02/22 07:50:13;;;;;;;104.35;47.72;;;;;;;5.43;74.63;98597.53;4968600;28;20122;-85
2023/02/22 07:52:38;;;;;;;113.97;53.05;;;;;;;5.49;74.47;98604.66;4969979;28;20030;-90
2023/02/22 07:55:05;;;;;;;73.18;35.13;;;;;;;5.51;74.63;98610.63;4970892;28;20047;-88
2023/02/22 07:57:31;;;;;;;75.18;35.83;;;;;;;5.54;74.50;98601.13;4972447;28;20106;-88
2023/02/22 07:59:56;;;;;;;73.70;35.53;;;;;;;5.60;74.66;98614.50;4973118;28;20563;-88
2023/02/22 08:02:25;;;;;;;29.63;13.20;;;;;;;5.68;74.55;98606.97;4975800;28;20038;-90
2023/02/22 08:04:50;;;;;;;22.05;10.63;;;;;;;5.75;74.63;98604.84;4972989;28;20085;-89
2023/02/22 08:07:15;;;;;;;19.00;8.48;;;;;;;5.85;74.66;98607.66;4970875;28;20098;-89
2023/02/22 08:09:41;;;;;;;17.67;7.57;;;;;;;5.94;74.65;98610.69;4968037;28;20472;-86
2023/02/22 08:12:06;;;;;;;23.60;8.48;;;;;;;5.99;74.59;98604.44;4971747;28;20026;-87
2023/02/22 08:14:31;;;;;;;21.55;8.40;;;;;;;6.04;74.50;98605.34;4972265;28;20061;-77
2023/02/22 08:16:57;;;;;;;29.67;12.98;;;;;;;6.06;74.73;98615.97;4969367;28;20023;-83
2023/02/22 08:19:22;;;;;;;33.95;14.07;;;;;;;6.07;74.44;98615.72;4973367;28;20042;-84
2023/02/22 08:21:49;;;;;;;33.15;13.18;;;;;;;6.11;74.63;98621.44;4972037;28;20038;-81
2023/02/22 08:24:14;;;;;;;22.42;8.70;;;;;;;6.15;74.44;98616.28;4971086;28;20198;-84
2023/02/22 08:26:46;;;;;;;24.77;9.38;;;;;;;6.20;74.38;98619.88;4972263;28;20035;-84
2023/02/22 08:29:13;;;;;;;21.45;9.00;;;;;;;6.27;74.45;98613.38;4971488;28;20034;-82
2023/02/22 08:31:39;;;;;;;15.13;6.85;;;;;;;6.35;74.81;98615.56;4972924;28;20030;-85
2023/02/22 08:34:05;;;;;;;15.95;7.47;;;;;;;6.38;74.03;98618.59;4972350;28;20034;-84
2023/02/22 08:36:31;;;;;;;18.63;5.88;;;;;;;6.42;74.03;98616.16;4978922;28;20026;-80
2023/02/22 08:38:57;;;;;;;14.07;5.47;;;;;;;6.46;74.29;98608.28;4971229;28;20038;-81
2023/02/22 08:41:23;;;;;;;17.20;5.70;;;;;;;6.52;74.19;98615.41;4968887;28;20043;-83
2023/02/22 08:43:48;;;;;;;17.70;6.50;;;;;;;6.55;73.62;98617.56;4971894;28;20027;-85
2023/02/22 08:46:16;;;;;;;15.05;5.30;;;;;;;6.58;73.90;98618.97;4971736;28;20174;-80
2023/02/22 08:48:51;;;;;;;15.30;5.82;;;;;;;6.60;73.60;98622.25;4971754;28;20038;-79
2023/02/22 08:51:17;;;;;;;16.83;6.45;;;;;;;6.64;73.74;98616.00;4968104;28;20070;-83
2023/02/22 08:53:43;;;;;;;17.67;6.85;;;;;;;6.68;73.52;98622.53;4970955;28;20106;-79
2023/02/22 08:56:08;;;;;;;16.92;6.90;;;;;;;6.70;73.61;98619.56;4971062;28;20476;-80
2023/02/22 08:58:34;;;;;;;16.17;6.85;;;;;;;6.75;73.50;98621.50;4968401;28;20039;-81
2023/02/22 09:00:59;;;;;;;20.67;6.90;;;;;;;6.81;73.32;98618.50;4969361;28;20034;-83
2023/02/22 09:03:24;;;;;;;16.98;7.32;;;;;;;6.86;73.31;98615.00;4970660;28;20077;-76
2023/02/22 09:05:50;;;;;;;18.70;6.82;;;;;;;6.92;73.31;98624.81;4971565;28;20031;-78
2023/02/22 09:08:16;;;;;;;17.90;7.57;;;;;;;6.97;73.03;98618.56;4968455;28;20054;-81
2023/02/22 09:10:41;;;;;;;24.95;9.88;;;;;;;7.02;73.49;98629.47;4970976;28;20042;-80
2023/02/22 09:13:07;;;;;;;18.05;7.70;;;;;;;7.06;72.83;98624.31;4970988;28;20031;-76
2023/02/22 09:15:36;;;;;;;20.55;7.65;;;;;;;7.10;72.85;98626.25;4971302;28;20076;-81
2023/02/22 09:18:03;;;;;;;19.83;8.27;;;;;;;7.18;72.97;98634.97;4968696;28;20071;-82
2023/02/22 09:20:29;;;;;;;18.40;7.43;;;;;;;7.26;72.70;98623.53;4970759;28;20029;-78
2023/02/22 09:22:56;;;;;;;21.88;8.80;;;;;;;7.36;72.44;98631.72;4971376;28;20058;-78
2023/02/22 09:25:21;;;;;;;20.20;7.68;;;;;;;7.43;72.40;98634.19;4970075;28;20463;-85
2023/02/22 09:27:52;;;;;;;38.60;19.67;;;;;;;7.53;72.49;98634.19;4968218;28;20078;-79
2023/02/22 09:30:22;;;;;;;44.55;23.08;;;;;;;7.61;72.42;98632.84;4966878;28;20109;-80
2023/02/22 09:32:47;;;;;;;37.22;16.50;;;;;;;7.69;72.50;98623.31;4965159;28;20050;-75
2023/02/22 09:35:12;;;;;;;34.13;14.90;;;;;;;7.77;72.61;98627.38;4970892;28;20069;-77
2023/02/22 09:37:38;;;;;;;26.40;9.35;;;;;;;7.79;72.26;98627.94;4969903;28;20395;-78
2023/02/22 09:40:08;;;;;;;22.23;10.20;;;;;;;7.79;72.32;98620.53;4971924;28;20487;-77
2023/02/22 09:42:44;;;;;;;24.10;8.27;;;;;;;7.84;72.19;98617.81;4971986;28;20029;-78
2023/02/22 09:45:31;;;;;;;22.70;7.55;;;;;;;7.85;71.22;98626.84;4971562;28;20031;-77
2023/02/22 09:48:02;;;;;;;21.20;7.38;;;;;;;7.86;71.64;98621.09;4971236;28;20049;-77
2023/02/22 09:50:35;;;;;;;23.00;7.80;;;;;;;7.90;71.33;98618.66;4969985;28;20042;-78
2023/02/22 09:53:14;;;;;;;21.75;8.75;;;;;;;7.95;71.17;98612.34;4968509;28;20027;-77
2023/02/22 09:55:52;;;;;;;18.38;6.50;;;;;;;8.00;71.10;98620.53;4970023;28;20051;-79
2023/02/22 09:58:25;;;;;;;20.35;5.53;;;;;;;8.08;71.03;98610.97;4967732;28;20043;-78
2023/02/22 10:00:58;;;;;;;13.40;4.95;;;;;;;8.08;70.37;98616.41;4969056;28;20023;-80
2023/02/22 10:04:00;;;;;;;14.07;4.55;;;;;;;8.11;70.44;98604.94;4966546;28;20058;-77
2023/02/22 10:06:28;;;;;;;15.95;4.90;;;;;;;8.14;69.67;98607.13;4965175;28;20055;-78
2023/02/22 10:08:58;;;;;;;16.75;5.57;;;;;;;8.20;70.02;98606.84;4971089;28;20096;-79
2023/02/22 10:11:47;;;;;;;16.02;4.40;;;;;;;8.24;69.79;98604.38;4970898;28;20031;-79
2023/02/22 10:14:15;;;;;;;13.82;4.60;;;;;;;8.28;69.46;98601.91;4967999;28;20038;-79
2023/02/22 10:17:05;;;;;;;15.88;4.35;;;;;;;8.30;68.83;98595.06;4970014;28;20110;-79
2023/02/22 10:19:37;;;;;;;13.02;4.35;;;;;;;8.33;68.84;98599.16;4968402;28;20042;-80
2023/02/22 10:22:20;;;;;;;15.52;4.20;;;;;;;8.40;68.61;98587.91;4970614;28;20038;-81
2023/02/22 10:25:18;;;;;;;18.23;7.00;;;;;;;8.46;69.03;98597.75;4984617;28;20042;-79
2023/02/22 10:27:46;;;;;;;18.95;5.55;;;;;;;8.53;68.95;98592.03;4971108;28;20050;-80
2023/02/22 10:30:21;;;;;;;14.73;4.90;;;;;;;8.55;67.83;98592.56;4970630;28;20031;-79
2023/02/22 10:33:00;;;;;;;17.13;6.30;;;;;;;8.51;67.59;98596.94;4971100;28;20478;-80
2023/02/22 10:35:33;;;;;;;20.20;7.68;;;;;;;8.54;67.57;98591.72;4986372;28;20027;-79
2023/02/22 10:38:11;;;;;;;21.25;7.18;;;;;;;8.58;67.88;98584.63;4971235;28;20114;-76
2023/02/22 10:40:38;;;;;;;16.38;5.72;;;;;;;8.67;68.13;98584.84;4971264;28;20027;-79
2023/02/22 10:43:05;;;;;;;15.45;5.93;;;;;;;8.71;67.58;98580.44;4970520;28;20083;-81
2023/02/22 10:45:33;;;;;;;20.40;6.90;;;;;;;8.75;67.76;98589.72;4971167;28;20415;-87
2023/02/22 10:48:13;;;;;;;21.65;7.25;;;;;;;8.79;67.69;98584.50;4971594;28;20262;-91
2023/02/22 10:50:41;;;;;;;15.48;7.43;;;;;;;8.81;67.22;98576.03;4971127;28;20059;-83
2023/02/22 10:53:08;;;;;;;18.48;6.47;;;;;;;8.81;67.29;98585.03;4971249;28;20031;-86
2023/02/22 10:55:33;;;;;;;13.77;5.82;;;;;;;8.81;66.79;98576.03;4986241;28;20047;-87
2023/02/22 10:58:03;;;;;;;17.52;6.05;;;;;;;8.78;66.85;98583.69;4970940;28;20030;-88
2023/02/22 11:00:38;;;;;;;14.25;5.00;;;;;;;8.81;66.76;98578.78;4971571;28;20032;-85
2023/02/22 11:03:22;;;;;;;14.88;5.47;;;;;;;8.81;67.28;98579.56;4969139;28;20026;-85
2023/02/22 11:05:48;;;;;;;18.75;5.70;;;;;;;8.85;66.30;98585.31;4968304;28;20027;-82
2023/02/22 11:08:20;;;;;;;14.38;5.30;;;;;;;8.89;66.65;98570.78;4970318;28;20034;-82
2023/02/22 11:10:50;;;;;;;10.38;4.68;;;;;;;8.96;66.62;98569.66;4969833;28;20039;-90
2023/02/22 11:13:38;;;;;;;14.00;5.05;;;;;;;8.98;66.80;98573.72;4970022;28;20035;-85
2023/02/22 11:16:35;;;;;;;17.30;5.28;;;;;;;9.00;66.33;98573.47;4971028;28;20027;-90
2023/02/22 11:19:09;;;;;;;14.23;5.38;;;;;;;9.03;66.30;98570.16;4971821;28;20090;-87
2023/02/22 11:21:35;;;;;;;17.70;7.57;;;;;;;9.01;66.10;98567.69;4969283;28;20457;-86
2023/02/22 11:24:03;;;;;;;16.52;7.20;;;;;;;9.04;65.86;98571.78;4970350;28;20114;-88
2023/02/22 11:26:55;;;;;;;11.25;4.88;;;;;;;9.07;65.67;98565.75;4971992;28;20496;-86
2023/02/22 11:29:27;;;;;;;13.10;5.13;;;;;;;9.12;65.16;98559.44;4974372;28;20043;-83
2023/02/22 11:31:54;;;;;;;16.25;6.97;;;;;;;9.16;65.21;98557.75;4974172;28;20035;-90
2023/02/22 11:34:35;;;;;;;17.05;6.80;;;;;;;9.26;65.94;98563.16;4969321;28;20037;-92
2023/02/22 11:37:28;;;;;;;16.50;6.78;;;;;;;9.24;65.75;98555.22;4971321;28;20031;-89
2023/02/22 11:40:22;;;;;;;18.13;6.45;;;;;;;9.22;65.38;98551.97;4973640;28;20046;-82
2023/02/22 11:43:04;;;;;;;14.30;5.90;;;;;;;9.22;64.56;98551.97;4972865;28;20022;-83